Time;durP1;ratioP1;P1;durP2;ratioP2;P2;SDS_P1;SDS_P2;PMS_P1;PMS_P2;Temp;Humidity;BMP_temperature;BMP_pressure;BME280_temperature;BME280_humidity;BME280_pressure;Samples;Min_cycle;Max_cycle;Signal;HPM_P1;HPM_P2
2022/10/06 00:01:33;;;;;;;6.23;1.60;;;;;;;;;;5076916;28;20193;-77
2022/10/06 00:03:59;;;;;;;2.93;0.90;;;;;;;;;;5079276;28;20048;-76
2022/10/06 00:06:25;;;;;;;2.23;0.70;;;;;;;;;;5061884;28;20023;-74
2022/10/06 00:08:51;;;;;;;6.53;1.10;;;;;;;;;;5060310;28;20032;-76
2022/10/06 00:11:19;;;;;;;2.50;0.60;;;;;;;;;;5080101;28;20496;-76
2022/10/06 00:13:47;;;;;;;3.13;1.17;;;;;;;;;;5077939;28;20040;-76
2022/10/06 00:16:20;;;;;;;6.20;1.53;;;;;;;;;;5064764;28;20024;-74
2022/10/06 00:18:46;;;;;;;;;;;;;;;;;;5077998;28;20048;-75
2022/10/06 00:21:12;;;;;;;3.03;0.70;;;;;;;;;;5075817;28;19951;-76
2022/10/06 00:23:38;;;;;;;8.50;0.90;;;;;;;;;;5075602;28;20098;-76
2022/10/06 00:26:05;;;;;;;7.30;0.97;;;;;;;;;;5062701;28;20037;-76
2022/10/06 00:28:31;;;;;;;4.53;0.90;;;;;;;;;;5058096;28;20042;-77
2022/10/06 00:31:00;;;;;;;4.33;0.90;;;;;;;;;;5072259;28;20020;-77
2022/10/06 00:33:26;;;;;;;4.27;0.80;;;;;;;;;;5080602;28;20502;-77
2022/10/06 00:35:59;;;;;;;4.70;0.90;;;;;;;;;;5080239;28;20036;-77
2022/10/06 00:38:25;;;;;;;7.90;1.20;;;;;;;;;;5077041;28;20929;-77
2022/10/06 00:40:51;;;;;;;4.53;1.27;;;;;;;;;;5091355;28;20127;-77
2022/10/06 00:43:39;;;;;;;3.93;1.07;;;;;;;;;;5057690;28;20115;-76
2022/10/06 00:46:06;;;;;;;5.70;1.77;;;;;;;;;;5076128;28;20043;-76
2022/10/06 00:48:32;;;;;;;5.23;1.40;;;;;;;;;;5058387;28;20038;-76
2022/10/06 00:50:59;;;;;;;6.13;1.27;;;;;;;;;;5075257;28;20120;-76
2022/10/06 00:53:29;;;;;;;5.73;1.43;;;;;;;;;;5058943;28;20585;-77
2022/10/06 00:55:56;;;;;;;6.20;1.70;;;;;;;;;;5064084;28;21633;-77
2022/10/06 00:58:22;;;;;;;6.83;2.23;;;;;;;;;;5062902;28;20036;-77
2022/10/06 01:00:49;;;;;;;5.93;1.57;;;;;;;;;;5061509;28;20441;-75
2022/10/06 01:03:16;;;;;;;5.03;1.20;;;;;;;;;;5054839;28;20036;-75
2022/10/06 01:05:45;;;;;;;10.67;1.60;;;;;;;;;;5064335;28;20424;-74
2022/10/06 01:08:12;;;;;;;4.73;1.10;;;;;;;;;;5075223;28;20036;-74
2022/10/06 01:10:38;;;;;;;10.50;1.43;;;;;;;;;;5066201;28;20028;-77
2022/10/06 01:13:05;;;;;;;7.10;1.60;;;;;;;;;;5077041;28;20039;-75
2022/10/06 01:15:33;;;;;;;14.93;1.97;;;;;;;;;;5060149;28;20029;-75
2022/10/06 01:18:00;;;;;;;8.30;1.33;;;;;;;;;;5089769;28;21643;-77
2022/10/06 01:20:28;;;;;;;6.70;1.17;;;;;;;;;;5074728;28;20113;-76
2022/10/06 01:23:01;;;;;;;7.43;1.23;;;;;;;;;;5061336;28;20667;-76
2022/10/06 01:25:27;;;;;;;7.17;1.10;;;;;;;;;;5057477;28;20040;-75
2022/10/06 01:27:54;;;;;;;7.00;1.57;;;;;;;;;;5064923;28;20039;-76
2022/10/06 01:30:37;;;;;;;8.63;1.53;;;;;;;;;;5057067;28;20037;-77
2022/10/06 01:33:03;;;;;;;5.22;1.75;;;;;;;;;;5064756;28;20032;-77
2022/10/06 01:35:29;;;;;;;9.33;1.43;;;;;;;;;;5076326;28;20404;-76
2022/10/06 01:37:57;;;;;;;7.97;1.30;;;;;;;;;;5061992;28;20036;-76
2022/10/06 01:40:25;;;;;;;9.87;2.20;;;;;;;;;;5059004;28;20114;-75
2022/10/06 01:42:51;;;;;;;6.40;1.07;;;;;;;;;;5075651;28;20025;-77
2022/10/06 01:45:17;;;;;;;8.93;1.97;;;;;;;;;;5057330;28;20349;-77
2022/10/06 01:47:46;;;;;;;7.73;1.57;;;;;;;;;;5072073;28;20028;-77
2022/10/06 01:50:12;;;;;;;7.03;1.80;;;;;;;;;;5072993;28;20042;-76
2022/10/06 01:52:38;;;;;;;8.43;1.97;;;;;;;;;;5059832;28;20036;-75
2022/10/06 01:55:04;;;;;;;7.20;1.30;;;;;;;;;;5076022;28;20039;-75
2022/10/06 01:57:31;;;;;;;9.87;2.53;;;;;;;;;;5057798;28;20042;-76
2022/10/06 01:59:56;;;;;;;7.23;1.60;;;;;;;;;;5075988;28;20044;-76
2022/10/06 02:02:23;;;;;;;6.00;1.50;;;;;;;;;;5059420;28;20031;-76
2022/10/06 02:04:51;;;;;;;6.93;1.60;;;;;;;;;;5072714;28;20032;-76
2022/10/06 02:07:17;;;;;;;10.57;1.90;;;;;;;;;;5075962;28;20516;-74
2022/10/06 02:09:43;;;;;;;15.37;2.10;;;;;;;;;;5055734;28;20448;-77
2022/10/06 02:12:09;;;;;;;11.63;1.63;;;;;;;;;;5074010;28;20047;-76
2022/10/06 02:14:35;;;;;;;5.23;1.33;;;;;;;;;;5056499;28;20496;-77
2022/10/06 02:17:01;;;;;;;11.90;1.70;;;;;;;;;;5060581;28;20032;-77
2022/10/06 02:19:27;;;;;;;11.83;1.97;;;;;;;;;;5056692;28;20403;-76
2022/10/06 02:21:53;;;;;;;5.67;1.70;;;;;;;;;;5056486;28;20037;-76
2022/10/06 02:24:19;;;;;;;7.33;1.73;;;;;;;;;;5062263;28;20036;-77
2022/10/06 02:26:45;;;;;;;9.53;2.10;;;;;;;;;;5072455;28;20040;-76
2022/10/06 02:29:13;;;;;;;8.57;1.93;;;;;;;;;;5058080;28;20044;-77
2022/10/06 02:31:39;;;;;;;9.83;1.87;;;;;;;;;;5056091;28;20872;-75
2022/10/06 02:34:05;;;;;;;12.13;1.63;;;;;;;;;;5071960;28;20032;-76
2022/10/06 02:36:31;;;;;;;11.73;2.53;;;;;;;;;;5061092;28;20028;-77
2022/10/06 02:39:00;;;;;;;9.77;1.63;;;;;;;;;;5057944;28;20063;-75
2022/10/06 02:41:26;;;;;;;13.10;1.47;;;;;;;;;;5054866;28;20171;-76
2022/10/06 02:43:54;;;;;;;7.37;1.20;;;;;;;;;;5072422;28;20123;-76
2022/10/06 02:46:23;;;;;;;8.43;1.50;;;;;;;;;;5073604;28;20024;-75
2022/10/06 02:48:52;;;;;;;13.30;2.07;;;;;;;;;;5053555;28;20040;-76
2022/10/06 02:51:19;;;;;;;10.90;1.67;;;;;;;;;;5073114;28;20670;-75
2022/10/06 02:53:49;;;;;;;8.77;2.07;;;;;;;;;;5053527;28;20032;-74
2022/10/06 02:56:24;;;;;;;14.80;2.40;;;;;;;;;;5074342;28;20040;-77
2022/10/06 02:58:51;;;;;;;14.73;2.40;;;;;;;;;;5073803;28;20032;-77
2022/10/06 03:01:22;;;;;;;12.00;2.17;;;;;;;;;;5071718;28;20464;-77
2022/10/06 03:03:51;;;;;;;12.43;2.97;;;;;;;;;;5073383;28;20180;-76
2022/10/06 03:06:21;;;;;;;11.50;2.30;;;;;;;;;;5088915;28;20437;-77
2022/10/06 03:08:55;;;;;;;12.37;2.20;;;;;;;;;;5063260;28;20044;-76
2022/10/06 03:11:22;;;;;;;10.07;2.10;;;;;;;;;;5090744;28;20029;-77
2022/10/06 03:13:50;;;;;;;14.43;2.23;;;;;;;;;;5087413;28;20032;-77
2022/10/06 03:16:20;;;;;;;14.27;2.50;;;;;;;;;;5073582;28;20033;-77
2022/10/06 03:18:48;;;;;;;9.33;2.33;;;;;;;;;;5060052;28;20035;-77
2022/10/06 03:21:14;;;;;;;22.47;2.50;;;;;;;;;;5074751;28;20035;-77
2022/10/06 03:23:44;;;;;;;11.70;2.67;;;;;;;;;;5074117;28;20039;-78
2022/10/06 03:26:10;;;;;;;17.20;3.10;;;;;;;;;;5072762;28;20028;-76
2022/10/06 03:28:39;;;;;;;17.50;3.03;;;;;;;;;;5071094;28;20075;-76
2022/10/06 03:31:05;;;;;;;10.23;2.53;;;;;;;;;;5072684;28;20052;-76
2022/10/06 03:33:32;;;;;;;18.93;2.73;;;;;;;;;;5066647;28;20031;-76
2022/10/06 03:36:04;;;;;;;14.70;2.83;;;;;;;;;;5057442;28;20502;-76
2022/10/06 03:38:33;;;;;;;13.55;3.10;;;;;;;;;;5072968;28;20041;-77
2022/10/06 03:41:07;;;;;;;12.27;2.67;;;;;;;;;;5058652;28;20611;-76
2022/10/06 03:43:33;;;;;;;14.70;2.60;;;;;;;;;;5071347;28;20086;-75
2022/10/06 03:45:59;;;;;;;13.73;2.67;;;;;;;;;;5054834;28;20045;-77
2022/10/06 03:48:26;;;;;;;17.03;3.27;;;;;;;;;;5072794;28;20056;-77
2022/10/06 03:50:57;;;;;;;12.47;2.63;;;;;;;;;;5074140;28;20110;-76
2022/10/06 03:53:26;;;;;;;11.97;2.13;;;;;;;;;;5071754;28;20020;-77
2022/10/06 03:56:22;;;;;;;17.73;3.03;;;;;;;;;;5073433;28;20392;-76
2022/10/06 03:58:50;;;;;;;11.37;2.30;;;;;;;;;;5062904;28;20489;-76
2022/10/06 04:01:17;;;;;;;15.57;2.73;;;;;;;;;;5072906;28;20028;-75
2022/10/06 04:03:46;;;;;;;13.53;2.80;;;;;;;;;;5057214;28;20037;-76
2022/10/06 04:06:13;;;;;;;15.47;2.97;;;;;;;;;;5072815;28;20341;-76
2022/10/06 04:08:41;;;;;;;14.47;2.83;;;;;;;;;;5074426;28;20093;-76
2022/10/06 04:11:10;;;;;;;15.33;3.40;;;;;;;;;;5076289;28;20040;-75
2022/10/06 04:13:36;;;;;;;18.97;4.43;;;;;;;;;;5063343;28;20032;-77
2022/10/06 04:16:11;;;;;;;19.30;2.83;;;;;;;;;;5075654;28;20479;-75
2022/10/06 04:18:37;;;;;;;16.07;3.27;;;;;;;;;;5076775;28;20329;-77
2022/10/06 04:21:04;;;;;;;17.80;2.70;;;;;;;;;;5075564;28;20112;-75
2022/10/06 04:23:30;;;;;;;14.80;2.97;;;;;;;;;;5064687;28;20070;-75
2022/10/06 04:25:59;;;;;;;16.43;2.40;;;;;;;;;;5076407;28;20123;-75
2022/10/06 04:28:25;;;;;;;16.23;3.00;;;;;;;;;;5064437;28;20228;-76
2022/10/06 04:30:55;;;;;;;14.67;2.53;;;;;;;;;;5076225;28;20028;-77
2022/10/06 04:33:21;;;;;;;9.90;2.47;;;;;;;;;;5067182;28;20024;-76
2022/10/06 04:35:47;;;;;;;14.57;2.03;;;;;;;;;;5059090;28;20070;-75
2022/10/06 04:38:14;;;;;;;14.67;2.10;;;;;;;;;;5076673;28;20768;-76
2022/10/06 04:40:40;;;;;;;14.83;2.53;;;;;;;;;;5074996;28;20108;-76
2022/10/06 04:43:06;;;;;;;15.47;3.17;;;;;;;;;;5074979;28;20115;-75
2022/10/06 04:45:32;;;;;;;14.13;3.30;;;;;;;;;;5058474;28;20043;-76
2022/10/06 04:47:58;;;;;;;14.33;3.27;;;;;;;;;;5075889;28;20090;-77
2022/10/06 04:50:24;;;;;;;13.93;2.33;;;;;;;;;;5077277;28;20036;-76
2022/10/06 04:52:51;;;;;;;17.40;2.90;;;;;;;;;;5076833;28;20028;-76
2022/10/06 04:55:17;;;;;;;11.43;2.37;;;;;;;;;;5059287;28;20051;-76
2022/10/06 04:57:43;;;;;;;19.73;2.97;;;;;;;;;;5063117;28;20361;-76
2022/10/06 05:00:21;;;;;;;16.27;2.33;;;;;;;;;;5074128;28;20037;-76
2022/10/06 05:02:50;;;;;;;18.43;2.73;;;;;;;;;;5066712;28;20032;-76
2022/10/06 05:05:16;;;;;;;17.30;2.80;;;;;;;;;;5062349;28;20159;-75
2022/10/06 05:07:45;;;;;;;17.37;2.93;;;;;;;;;;5055977;28;20154;-76
2022/10/06 05:10:11;;;;;;;13.87;2.53;;;;;;;;;;5075879;28;20490;-77
2022/10/06 05:12:37;;;;;;;17.93;3.17;;;;;;;;;;5075407;28;20094;-75
2022/10/06 05:15:03;;;;;;;18.50;3.40;;;;;;;;;;5075229;28;20043;-77
2022/10/06 05:17:29;;;;;;;17.30;3.20;;;;;;;;;;5093104;28;20032;-76
2022/10/06 05:19:55;;;;;;;14.90;3.60;;;;;;;;;;5059718;28;20037;-77
2022/10/06 05:22:21;;;;;;;16.53;2.80;;;;;;;;;;5066161;28;20050;-77
2022/10/06 05:24:52;;;;;;;16.67;3.50;;;;;;;;;;5077832;28;20451;-75
2022/10/06 05:27:18;;;;;;;13.00;2.87;;;;;;;;;;5075000;28;20078;-77
2022/10/06 05:29:46;;;;;;;16.97;3.53;;;;;;;;;;5056583;28;20020;-76
2022/10/06 05:32:15;;;;;;;21.53;3.97;;;;;;;;;;5075721;28;20403;-76
2022/10/06 05:34:41;;;;;;;13.57;3.13;;;;;;;;;;5077229;28;20056;-77
2022/10/06 05:37:07;;;;;;;20.00;4.17;;;;;;;;;;5059990;28;20052;-77
2022/10/06 05:39:33;;;;;;;24.20;4.00;;;;;;;;;;5062999;28;20043;-75
2022/10/06 05:41:59;;;;;;;18.60;3.50;;;;;;;;;;5057483;28;20046;-75
2022/10/06 05:44:24;;;;;;;19.03;3.67;;;;;;;;;;5066301;28;20035;-77
2022/10/06 05:46:50;;;;;;;15.20;3.97;;;;;;;;;;5065684;28;20078;-75
2022/10/06 05:49:16;;;;;;;18.50;3.83;;;;;;;;;;5061525;28;21784;-77
2022/10/06 05:51:42;;;;;;;18.93;3.70;;;;;;;;;;5078439;28;20020;-75
2022/10/06 05:54:08;;;;;;;18.40;3.80;;;;;;;;;;5076003;28;20093;-76
2022/10/06 05:56:35;;;;;;;20.13;3.87;;;;;;;;;;5059505;28;20078;-76
2022/10/06 05:59:04;;;;;;;18.53;2.90;;;;;;;;;;5076835;28;20066;-77
2022/10/06 06:01:33;;;;;;;31.53;3.57;;;;;;;;;;5058864;28;20371;-77
2022/10/06 06:04:00;;;;;;;22.73;4.27;;;;;;;;;;5076677;28;20028;-76
2022/10/06 06:06:30;;;;;;;24.23;3.17;;;;;;;;;;5066202;28;20098;-78
2022/10/06 06:08:56;;;;;;;19.57;3.53;;;;;;;;;;5061472;28;20673;-77
2022/10/06 06:11:26;;;;;;;23.87;4.83;;;;;;;;;;5074086;28;20429;-75
2022/10/06 06:13:56;;;;;;;20.03;3.43;;;;;;;;;;5058270;28;20029;-75
2022/10/06 06:16:23;;;;;;;21.57;4.87;;;;;;;;;;5074394;28;20032;-76
2022/10/06 06:18:49;;;;;;;17.60;3.60;;;;;;;;;;5074913;28;20028;-76
2022/10/06 06:21:15;;;;;;;17.17;2.93;;;;;;;;;;5074999;28;20761;-76
2022/10/06 06:23:44;;;;;;;18.27;3.47;;;;;;;;;;5077169;28;20051;-77
2022/10/06 06:26:14;;;;;;;22.67;3.23;;;;;;;;;;5061743;28;20028;-75
2022/10/06 06:28:41;;;;;;;16.93;3.17;;;;;;;;;;5075077;28;20037;-76
2022/10/06 06:31:08;;;;;;;17.80;2.87;;;;;;;;;;5072941;28;20034;-76
2022/10/06 06:33:36;;;;;;;13.37;3.13;;;;;;;;;;5057607;28;20055;-75
2022/10/06 06:36:02;;;;;;;15.80;2.40;;;;;;;;;;5077233;28;20028;-76
2022/10/06 06:38:31;;;;;;;20.90;3.80;;;;;;;;;;5074639;28;20044;-77
2022/10/06 06:40:57;;;;;;;21.83;3.93;;;;;;;;;;5074276;28;20036;-76
2022/10/06 06:43:23;;;;;;;19.00;3.37;;;;;;;;;;5059545;28;20066;-75
2022/10/06 06:45:52;;;;;;;15.83;2.80;;;;;;;;;;5073694;28;20036;-76
2022/10/06 06:48:18;;;;;;;34.33;4.77;;;;;;;;;;5075229;28;20099;-75
2022/10/06 06:50:44;;;;;;;18.93;2.77;;;;;;;;;;5075770;28;20092;-77
2022/10/06 06:53:12;;;;;;;18.77;2.93;;;;;;;;;;5069095;28;20039;-77
2022/10/06 06:55:49;;;;;;;20.03;3.50;;;;;;;;;;5066964;28;20033;-77
2022/10/06 06:58:15;;;;;;;15.47;3.13;;;;;;;;;;5069310;28;20090;-77
2022/10/06 07:00:41;;;;;;;22.27;4.47;;;;;;;;;;5063568;28;20032;-78
2022/10/06 07:03:11;;;;;;;19.73;3.43;;;;;;;;;;5076240;28;20042;-77
2022/10/06 07:05:38;;;;;;;20.13;3.73;;;;;;;;;;5074358;28;20050;-77
2022/10/06 07:08:06;;;;;;;24.63;4.43;;;;;;;;;;5063582;28;20063;-77
2022/10/06 07:10:34;;;;;;;14.13;2.90;;;;;;;;;;5057458;28;20094;-76
2022/10/06 07:13:03;;;;;;;23.37;3.20;;;;;;;;;;5058363;28;20028;-77
2022/10/06 07:26:34;;;;;;;17.40;3.07;;;;;;;;;;5054394;28;20035;-76
2022/10/06 07:29:00;;;;;;;22.67;3.17;;;;;;;;;;5057381;28;20032;-78
2022/10/06 07:31:30;;;;;;;23.53;4.13;;;;;;;;;;5064302;28;20039;-77
2022/10/06 07:34:01;;;;;;;27.47;4.10;;;;;;;;;;5077167;28;20028;-78
2022/10/06 07:36:29;;;;;;;22.23;4.10;;;;;;;;;;5077518;28;20960;-78
2022/10/06 07:38:55;;;;;;;23.63;4.37;;;;;;;;;;5062938;28;20345;-76
2022/10/06 07:41:22;;;;;;;20.93;4.10;;;;;;;;;;5079535;28;20479;-78
2022/10/06 07:43:48;;;;;;;21.50;3.73;;;;;;;;;;5076601;28;20051;-78
2022/10/06 07:46:17;;;;;;;17.90;3.00;;;;;;;;;;5081939;28;20036;-77
2022/10/06 07:48:45;;;;;;;24.73;3.70;;;;;;;;;;5071848;28;20031;-78
2022/10/06 07:51:16;;;;;;;24.63;2.97;;;;;;;;;;5079872;28;20037;-77
2022/10/06 07:53:49;;;;;;;19.67;3.30;;;;;;;;;;5079734;28;20612;-78
2022/10/06 07:56:16;;;;;;;18.00;3.87;;;;;;;;;;5080449;28;20056;-78
2022/10/06 07:58:44;;;;;;;25.43;3.97;;;;;;;;;;5079488;28;20032;-78
2022/10/06 08:01:12;;;;;;;14.97;2.60;;;;;;;;;;5078437;28;20085;-77
2022/10/06 08:03:38;;;;;;;19.53;3.70;;;;;;;;;;5078362;28;20036;-76
2022/10/06 08:06:04;;;;;;;15.30;3.10;;;;;;;;;;5080084;28;21994;-77
2022/10/06 08:08:31;;;;;;;22.53;3.90;;;;;;;;;;5078795;28;20467;-76
2022/10/06 08:10:58;;;;;;;15.73;3.30;;;;;;;;;;5079934;28;20028;-77
2022/10/06 08:13:24;;;;;;;20.77;3.33;;;;;;;;;;5080654;28;20021;-78
2022/10/06 08:15:51;;;;;;;12.73;2.70;;;;;;;;;;5063870;28;20032;-78
2022/10/06 08:18:17;;;;;;;16.63;3.53;;;;;;;;;;5064527;28;20044;-78
2022/10/06 08:20:44;;;;;;;19.57;4.10;;;;;;;;;;5063788;28;20112;-77
2022/10/06 08:23:13;;;;;;;20.90;4.47;;;;;;;;;;5062489;28;20134;-76
2022/10/06 08:25:42;;;;;;;17.30;3.77;;;;;;;;;;5079123;28;20040;-76
2022/10/06 08:28:09;;;;;;;15.33;2.93;;;;;;;;;;5078678;28;20043;-76
2022/10/06 08:30:37;;;;;;;19.33;4.30;;;;;;;;;;5077158;28;20028;-77
2022/10/06 08:33:06;;;;;;;20.07;3.67;;;;;;;;;;5071555;28;20126;-76
2022/10/06 08:35:35;;;;;;;17.30;3.70;;;;;;;;;;5078728;28;20059;-78
2022/10/06 08:38:01;;;;;;;20.83;3.80;;;;;;;;;;5078338;28;20118;-77
2022/10/06 08:40:28;;;;;;;18.20;4.37;;;;;;;;;;5080626;28;20152;-77
2022/10/06 08:42:59;;;;;;;16.73;3.27;;;;;;;;;;5060659;28;20039;-76
2022/10/06 08:45:34;;;;;;;20.43;3.57;;;;;;;;;;5070360;28;20025;-76
2022/10/06 08:48:06;;;;;;;15.37;2.97;;;;;;;;;;5077637;28;20028;-77
2022/10/06 08:50:37;;;;;;;18.20;4.70;;;;;;;;;;5076522;28;20074;-77
2022/10/06 08:53:17;;;;;;;20.37;3.40;;;;;;;;;;5078762;28;20035;-77
2022/10/06 08:56:16;;;;;;;17.20;2.87;;;;;;;;;;5077547;28;20042;-77
2022/10/06 08:58:55;;;;;;;23.07;3.53;;;;;;;;;;5080676;28;20046;-77
2022/10/06 09:01:22;;;;;;;19.90;3.40;;;;;;;;;;5061036;28;20040;-76
2022/10/06 09:03:51;;;;;;;22.10;3.93;;;;;;;;;;5077659;28;21854;-78
2022/10/06 09:06:17;;;;;;;19.67;4.03;;;;;;;;;;5077989;28;20028;-76
2022/10/06 09:08:48;;;;;;;16.77;3.13;;;;;;;;;;5076616;28;20032;-78
2022/10/06 09:11:14;;;;;;;17.07;4.20;;;;;;;;;;5077451;28;20421;-78
2022/10/06 09:13:46;;;;;;;19.50;3.47;;;;;;;;;;5076308;28;20028;-78
2022/10/06 09:16:15;;;;;;;17.92;3.50;;;;;;;;;;5093959;28;20036;-77
2022/10/06 09:18:50;;;;;;;18.30;3.73;;;;;;;;;;5076581;28;20032;-75
2022/10/06 09:21:17;;;;;;;14.93;3.60;;;;;;;;;;5075838;28;20025;-76
2022/10/06 09:23:48;;;;;;;16.67;3.60;;;;;;;;;;5077492;28;20039;-77
2022/10/06 09:26:21;;;;;;;19.83;3.37;;;;;;;;;;5077100;28;20121;-78
2022/10/06 09:28:47;;;;;;;17.27;2.90;;;;;;;;;;5092751;28;20020;-76
2022/10/06 09:31:21;;;;;;;15.93;3.53;;;;;;;;;;5069627;28;20117;-76
2022/10/06 09:33:48;;;;;;;21.03;5.20;;;;;;;;;;5081556;28;20468;-77
2022/10/06 09:36:14;;;;;;;12.20;2.40;;;;;;;;;;5095079;28;20044;-77
2022/10/06 09:38:46;;;;;;;14.80;3.40;;;;;;;;;;5077917;28;20033;-78
2022/10/06 09:41:13;;;;;;;14.70;2.78;;;;;;;;;;5093281;28;20040;-75
2022/10/06 09:43:39;;;;;;;15.50;3.43;;;;;;;;;;5063951;28;20036;-77
2022/10/06 09:46:20;;;;;;;15.73;3.60;;;;;;;;;;5061928;28;20039;-77
2022/10/06 09:48:46;;;;;;;17.00;2.73;;;;;;;;;;5065236;28;20051;-76
2022/10/06 09:51:14;;;;;;;23.07;3.50;;;;;;;;;;5076133;28;20025;-77
2022/10/06 09:54:05;;;;;;;19.03;3.10;;;;;;;;;;5058289;28;20104;-77
2022/10/06 09:56:35;;;;;;;16.23;3.00;;;;;;;;;;5047858;28;20062;-74
2022/10/06 09:59:02;;;;;;;14.03;2.50;;;;;;;;;;5061363;28;20020;-78
2022/10/06 10:01:29;;;;;;;15.57;2.67;;;;;;;;;;5075055;28;20040;-78
2022/10/06 10:03:59;;;;;;;14.25;2.88;;;;;;;;;;5077706;28;20020;-77
2022/10/06 10:06:34;;;;;;;14.73;3.13;;;;;;;;;;5074765;28;20037;-78
2022/10/06 10:09:12;;;;;;;20.30;3.42;;;;;;;;;;5058773;28;20123;-77
2022/10/06 10:14:23;;;;;;;16.60;2.20;;;;;;;;;;5076438;28;20142;-75
2022/10/06 10:16:49;;;;;;;13.77;2.75;;;;;;;;;;5077666;28;20103;-76
2022/10/06 10:19:36;;;;;;;11.52;2.28;;;;;;;;;;5061225;28;20032;-77
2022/10/06 10:22:03;;;;;;;17.67;2.55;;;;;;;;;;5076743;28;20020;-77
2022/10/06 10:24:48;;;;;;;12.57;2.65;;;;;;;;;;5058675;28;20349;-76
2022/10/06 10:27:22;;;;;;;10.73;2.70;;;;;;;;;;5074419;28;20403;-76
2022/10/06 10:30:04;;;;;;;11.32;2.03;;;;;;;;;;5076354;28;20031;-76
2022/10/06 10:32:36;;;;;;;11.25;2.30;;;;;;;;;;5059061;28;20028;-79
2022/10/06 10:35:08;;;;;;;13.20;3.10;;;;;;;;;;5080867;28;20032;-77
2022/10/06 10:37:34;;;;;;;10.80;2.10;;;;;;;;;;5057575;28;20364;-77
2022/10/06 10:40:01;;;;;;;14.10;2.90;;;;;;;;;;5093743;28;20107;-78
2022/10/06 10:42:38;;;;;;;7.85;2.00;;;;;;;;;;5080155;28;20809;-77
2022/10/06 10:45:22;;;;;;;14.45;2.13;;;;;;;;;;5075164;28;20111;-78
2022/10/06 10:47:49;;;;;;;15.98;2.40;;;;;;;;;;5059312;28;20020;-77
2022/10/06 10:50:26;;;;;;;11.73;2.10;;;;;;;;;;5075178;28;20028;-74
2022/10/06 10:52:57;;;;;;;11.63;2.45;;;;;;;;;;5061355;28;20024;-77
2022/10/06 10:55:31;;;;;;;16.27;3.75;;;;;;;;;;5074339;28;20112;-77
2022/10/06 10:58:13;;;;;;;8.32;2.40;;;;;;;;;;5092229;28;20140;-75
2022/10/06 11:00:41;;;;;;;11.85;2.22;;;;;;;;;;5090331;28;20047;-76
2022/10/06 11:03:09;;;;;;;9.50;2.22;;;;;;;;;;5068631;28;20028;-75
2022/10/06 11:05:45;;;;;;;12.30;2.53;;;;;;;;;;5067289;28;20035;-77
2022/10/06 11:08:15;;;;;;;14.45;2.30;;;;;;;;;;5061973;28;20028;-76
2022/10/06 11:10:46;;;;;;;10.70;1.88;;;;;;;;;;5073856;28;20020;-77
2022/10/06 11:13:38;;;;;;;9.27;2.25;;;;;;;;;;5076439;28;20021;-77
2022/10/06 11:16:04;;;;;;;11.48;1.75;;;;;;;;;;5071053;28;20040;-78
2022/10/06 11:18:40;;;;;;;13.30;2.47;;;;;;;;;;5059231;28;20048;-78
2022/10/06 11:21:24;;;;;;;12.15;2.20;;;;;;;;;;5064453;28;20033;-77
2022/10/06 11:23:53;;;;;;;11.70;2.13;;;;;;;;;;5061214;28;20047;-77
2022/10/06 11:26:23;;;;;;;9.55;2.28;;;;;;;;;;5078203;28;20482;-76
2022/10/06 11:29:03;;;;;;;10.73;1.80;;;;;;;;;;5062069;28;20150;-76
2022/10/06 11:31:41;;;;;;;16.17;2.80;;;;;;;;;;5082785;28;20056;-76
2022/10/06 11:34:09;;;;;;;14.77;2.45;;;;;;;;;;5077681;28;20417;-77
2022/10/06 11:36:35;;;;;;;10.70;2.15;;;;;;;;;;5081130;28;20032;-77
2022/10/06 11:39:05;;;;;;;7.85;1.73;;;;;;;;;;5079810;28;20128;-76
2022/10/06 11:41:34;;;;;;;7.28;1.98;;;;;;;;;;5063515;28;20032;-77
2022/10/06 11:44:03;;;;;;;9.57;1.77;;;;;;;;;;5080764;28;20021;-75
2022/10/06 11:46:29;;;;;;;9.60;1.73;;;;;;;;;;5077765;28;20917;-77
2022/10/06 11:49:15;;;;;;;11.38;2.30;;;;;;;;;;5062519;28;20024;-77
2022/10/06 11:51:40;;;;;;;11.98;2.20;;;;;;;;;;5060166;28;21727;-76
2022/10/06 11:54:26;;;;;;;17.00;2.50;;;;;;;;;;5064414;28;20021;-75
2022/10/06 11:56:52;;;;;;;10.35;2.38;;;;;;;;;;5080166;28;20028;-77
2022/10/06 11:59:25;;;;;;;15.18;2.95;;;;;;;;;;5084346;28;20039;-75
2022/10/06 12:01:52;;;;;;;8.18;1.90;;;;;;;;;;5063799;28;20046;-76
2022/10/06 12:04:19;;;;;;;10.98;2.15;;;;;;;;;;5070481;28;20040;-79
2022/10/06 12:06:45;;;;;;;12.05;2.50;;;;;;;;;;5096154;28;20097;-78
2022/10/06 12:09:23;;;;;;;12.70;1.90;;;;;;;;;;5078427;28;20074;-78
2022/10/06 12:11:50;;;;;;;6.28;1.77;;;;;;;;;;5079432;28;20028;-78
2022/10/06 12:14:24;;;;;;;6.15;1.50;;;;;;;;;;5069020;28;20040;-76
2022/10/06 12:16:54;;;;;;;13.95;3.00;;;;;;;;;;5070210;28;20170;-78
2022/10/06 12:19:30;;;;;;;6.15;1.35;;;;;;;;;;5078623;28;20036;-76
2022/10/06 12:22:09;;;;;;;8.18;1.98;;;;;;;;;;5095523;28;20024;-77
2022/10/06 12:24:40;;;;;;;11.77;2.20;;;;;;;;;;5073342;28;20032;-79
2022/10/06 12:27:25;;;;;;;8.75;1.77;;;;;;;;;;5076634;28;20162;-79
2022/10/06 12:30:10;;;;;;;10.65;2.15;;;;;;;;;;5078251;28;20181;-77
2022/10/06 12:32:51;;;;;;;11.38;2.20;;;;;;;;;;5076740;28;20036;-78
2022/10/06 12:35:30;;;;;;;7.30;1.83;;;;;;;;;;5077143;28;20039;-76
2022/10/06 12:38:05;;;;;;;11.52;2.25;;;;;;;;;;5079064;28;20028;-75
2022/10/06 12:40:51;;;;;;;9.00;1.65;;;;;;;;;;5065249;28;20036;-76
2022/10/06 12:43:17;;;;;;;6.65;1.58;;;;;;;;;;5062331;28;20028;-78
2022/10/06 12:45:46;;;;;;;8.70;1.63;;;;;;;;;;5063247;28;20036;-78
2022/10/06 12:48:15;;;;;;;9.85;1.83;;;;;;;;;;5060313;28;20097;-77
2022/10/06 12:50:43;;;;;;;6.85;1.65;;;;;;;;;;5079624;28;20261;-76
2022/10/06 12:53:21;;;;;;;6.72;2.08;;;;;;;;;;5076972;28;20043;-76
2022/10/06 12:55:48;;;;;;;9.32;1.60;;;;;;;;;;5079833;28;20069;-75
2022/10/06 12:58:27;;;;;;;8.02;1.90;;;;;;;;;;5078961;28;20745;-74
2022/10/06 13:00:54;;;;;;;9.82;1.65;;;;;;;;;;5068212;28;20032;-78
2022/10/06 13:03:24;;;;;;;5.05;1.23;;;;;;;;;;5082417;28;20043;-77
2022/10/06 13:05:52;;;;;;;7.65;1.60;;;;;;;;;;5059831;28;20055;-76
2022/10/06 13:08:23;;;;;;;7.15;1.80;;;;;;;;;;5076551;28;20028;-77
2022/10/06 13:10:49;;;;;;;6.75;1.20;;;;;;;;;;5077789;28;20032;-76
2022/10/06 13:13:23;;;;;;;8.10;1.65;;;;;;;;;;5076421;28;20033;-78
2022/10/06 13:15:50;;;;;;;9.85;2.00;;;;;;;;;;5068220;28;20024;-75
2022/10/06 13:18:18;;;;;;;6.00;1.85;;;;;;;;;;5059350;28;20058;-76
2022/10/06 13:20:51;;;;;;;5.45;1.10;;;;;;;;;;5076403;28;21632;-78
2022/10/06 13:23:25;;;;;;;6.63;1.48;;;;;;;;;;5057898;28;20472;-79
2022/10/06 13:25:59;;;;;;;11.25;2.35;;;;;;;;;;5063002;28;20441;-76
2022/10/06 13:28:44;;;;;;;7.40;1.50;;;;;;;;;;5077239;28;20444;-77
2022/10/06 13:31:13;;;;;;;9.20;1.77;;;;;;;;;;5075121;28;20039;-77
2022/10/06 13:33:40;;;;;;;10.45;2.33;;;;;;;;;;5059772;28;20047;-77
2022/10/06 13:36:07;;;;;;;14.18;2.65;;;;;;;;;;5077876;28;20044;-77
2022/10/06 13:38:34;;;;;;;8.48;1.77;;;;;;;;;;5077556;28;20170;-76
2022/10/06 13:41:04;;;;;;;6.72;1.20;;;;;;;;;;5078851;28;20032;-80
2022/10/06 13:43:30;;;;;;;10.95;1.75;;;;;;;;;;5077383;28;20042;-78
2022/10/06 13:45:59;;;;;;;7.05;1.42;;;;;;;;;;5091607;28;20024;-77
2022/10/06 13:48:25;;;;;;;5.63;1.60;;;;;;;;;;5061102;28;20032;-76
2022/10/06 13:50:52;;;;;;;11.07;1.83;;;;;;;;;;5079794;28;20111;-76
2022/10/06 13:53:28;;;;;;;7.40;1.70;;;;;;;;;;5064640;28;20555;-76
2022/10/06 13:55:54;;;;;;;5.10;1.17;;;;;;;;;;5077478;28;20039;-76
2022/10/06 13:58:24;;;;;;;8.30;1.50;;;;;;;;;;5057019;28;20033;-76
2022/10/06 14:01:02;;;;;;;7.25;1.55;;;;;;;;;;5075653;28;20066;-75
2022/10/06 14:03:32;;;;;;;9.50;1.70;;;;;;;;;;5073628;28;20043;-77
2022/10/06 14:06:20;;;;;;;8.38;2.03;;;;;;;;;;5077142;28;20032;-77
2022/10/06 14:08:49;;;;;;;4.85;1.25;;;;;;;;;;5059383;28;20038;-77
2022/10/06 14:11:20;;;;;;;4.95;1.13;;;;;;;;;;5076535;28;20170;-75
2022/10/06 14:13:49;;;;;;;11.40;1.70;;;;;;;;;;5077074;28;20064;-80
2022/10/06 14:16:20;;;;;;;5.97;1.40;;;;;;;;;;5058372;28;20024;-76
2022/10/06 14:19:06;;;;;;;4.80;2.00;;;;;;;;;;5058269;28;20115;-77
2022/10/06 14:21:35;;;;;;;5.45;1.40;;;;;;;;;;5077659;28;20116;-76
2022/10/06 14:24:18;;;;;;;9.93;1.67;;;;;;;;;;5075753;28;20020;-78
2022/10/06 14:26:44;;;;;;;7.38;1.35;;;;;;;;;;5076654;28;20108;-76
2022/10/06 14:29:14;;;;;;;6.90;1.27;;;;;;;;;;5059335;28;20452;-77
2022/10/06 14:31:40;;;;;;;8.80;2.03;;;;;;;;;;5074627;28;20074;-76
2022/10/06 14:34:13;;;;;;;6.38;1.08;;;;;;;;;;5074788;28;20035;-76
2022/10/06 14:36:39;;;;;;;;;;;;;;;;;;5091824;28;20036;-76
2022/10/06 14:39:06;;;;;;;9.85;1.67;;;;;;;;;;5075103;28;19912;-78
2022/10/06 14:41:32;;;;;;;5.63;1.35;;;;;;;;;;5061165;28;20593;-78
2022/10/06 14:44:04;;;;;;;7.63;1.38;;;;;;;;;;5075828;28;20132;-77
2022/10/06 14:46:30;;;;;;;;;;;;;;;;;;5077088;28;20491;-77
2022/10/06 14:48:57;;;;;;;5.53;1.17;;;;;;;;;;5056271;28;19926;-77
2022/10/06 14:51:25;;;;;;;8.95;1.65;;;;;;;;;;5076320;28;20032;-77
2022/10/06 14:53:52;;;;;;;7.32;1.45;;;;;;;;;;5074378;28;21568;-77
2022/10/06 14:56:22;;;;;;;6.35;1.35;;;;;;;;;;5075573;28;20562;-78
2022/10/06 14:58:49;;;;;;;10.07;1.67;;;;;;;;;;5075719;28;20043;-78
2022/10/06 15:01:16;;;;;;;7.18;1.60;;;;;;;;;;5058674;28;20036;-78
2022/10/06 15:03:44;;;;;;;7.07;1.85;;;;;;;;;;5057598;28;20134;-77